Time;durP1;ratioP1;P1;durP2;ratioP2;P2;SDS_P1;SDS_P2;PMS_P1;PMS_P2;Temp;Humidity;BMP_temperature;BMP_pressure;BME280_temperature;BME280_humidity;BME280_pressure;Samples;Min_cycle;Max_cycle;Signal;HPM_P1;HPM_P2
2020/12/18 00:01:29;;;;;;;72.53;37.00;;;;;;;2.00;81.57;100860.61;1717096;80;21744;-60
2020/12/18 00:03:58;;;;;;;71.23;37.23;;;;;;;2.01;81.56;100857.52;1721383;80;21195;-60
2020/12/18 00:06:35;;;;;;;70.23;35.50;;;;;;;2.00;81.51;100863.27;1721909;80;21218;-59
2020/12/18 00:09:06;;;;;;;77.03;38.17;;;;;;;1.99;81.51;100860.16;1717006;80;21474;-60
2020/12/18 00:11:33;;;;;;;73.40;35.67;;;;;;;1.98;81.49;100865.45;1720634;80;21810;-58
2020/12/18 00:14:00;;;;;;;65.80;33.90;;;;;;;1.95;81.44;100863.70;1718449;80;21206;-60
2020/12/18 00:16:27;;;;;;;59.33;30.87;;;;;;;1.93;81.41;100862.80;1720105;80;21171;-60
2020/12/18 00:18:55;;;;;;;51.70;26.80;;;;;;;1.93;81.40;100853.50;1722098;80;21199;-59
2020/12/18 00:21:23;;;;;;;56.20;28.03;;;;;;;1.94;81.42;100852.62;1722693;80;21195;-60
2020/12/18 00:23:51;;;;;;;64.03;30.80;;;;;;;1.95;81.45;100849.09;1715608;80;21187;-59
2020/12/18 00:26:18;;;;;;;53.07;25.43;;;;;;;1.96;81.44;100848.19;1717923;80;21156;-62
2020/12/18 00:28:45;;;;;;;52.03;24.83;;;;;;;1.98;81.47;100850.85;1719356;80;21171;-59
2020/12/18 00:31:13;;;;;;;47.90;24.37;;;;;;;2.00;81.48;100854.41;1719175;80;21380;-60
2020/12/18 00:33:41;;;;;;;43.37;24.90;;;;;;;2.00;81.51;100852.64;1727282;80;21191;-59
2020/12/18 00:36:11;;;;;;;55.13;26.77;;;;;;;1.99;81.50;100845.55;1718882;80;21258;-59
2020/12/18 00:38:39;;;;;;;50.97;25.80;;;;;;;1.99;81.45;100849.97;1717986;80;22236;-59
2020/12/18 00:41:07;;;;;;;50.37;24.63;;;;;;;1.97;81.44;100845.09;1716901;80;21282;-60
2020/12/18 00:43:35;;;;;;;48.90;25.00;;;;;;;1.96;81.38;100845.53;1718687;80;22161;-60
2020/12/18 00:46:05;;;;;;;46.53;23.77;;;;;;;1.96;81.40;100846.86;1722643;80;21186;-60
2020/12/18 00:48:33;;;;;;;52.33;24.40;;;;;;;1.95;81.39;100843.78;1714537;80;21199;-59
2020/12/18 00:51:02;;;;;;;54.97;26.70;;;;;;;1.93;81.43;100844.21;1717311;80;21184;-59
2020/12/18 00:53:29;;;;;;;53.27;25.80;;;;;;;1.93;81.46;100843.32;1723827;80;21199;-60
2020/12/18 00:55:57;;;;;;;52.00;26.90;;;;;;;1.91;81.49;100840.66;1720245;80;22803;-60
2020/12/18 00:58:24;;;;;;;45.30;23.97;;;;;;;1.89;81.48;100835.77;1719341;80;21204;-59
2020/12/18 01:00:52;;;;;;;46.50;22.47;;;;;;;1.88;81.50;100836.65;1718300;80;21127;-60
2020/12/18 01:03:21;;;;;;;48.07;24.13;;;;;;;1.87;81.48;100829.59;1719347;80;21196;-60
2020/12/18 01:05:49;;;;;;;45.27;22.63;;;;;;;1.88;81.45;100832.66;1716656;80;21211;-60
2020/12/18 01:08:17;;;;;;;38.67;19.13;;;;;;;1.87;81.48;100830.45;1716851;80;22248;-60
2020/12/18 01:10:45;;;;;;;37.50;18.47;;;;;;;1.87;81.50;100824.28;1719052;80;21227;-61
2020/12/18 01:13:12;;;;;;;34.90;17.57;;;;;;;1.88;81.49;100827.36;1722589;80;21207;-60
2020/12/18 01:15:40;;;;;;;36.43;18.53;;;;;;;1.85;81.49;100822.94;1717486;80;22560;-60
2020/12/18 01:18:09;;;;;;;35.43;19.13;;;;;;;1.83;81.49;100823.81;1714301;80;21192;-60
2020/12/18 01:20:37;;;;;;;34.80;19.00;;;;;;;1.81;81.51;100823.80;1698333;80;23616;-59
2020/12/18 01:23:04;;;;;;;28.27;14.80;;;;;;;1.79;81.52;100818.91;1719380;80;21212;-61
2020/12/18 01:25:32;;;;;;;25.47;14.30;;;;;;;1.79;81.50;100816.70;1688925;81;21250;-60
2020/12/18 01:27:59;;;;;;;23.97;13.50;;;;;;;1.78;81.48;100813.19;1721858;80;21136;-60
2020/12/18 01:30:27;;;;;;;22.30;13.70;;;;;;;1.78;81.50;100813.63;1726805;80;21167;-60
2020/12/18 01:32:55;;;;;;;25.03;11.90;;;;;;;1.76;81.51;100814.94;1721775;80;21273;-60
2020/12/18 01:35:23;;;;;;;22.27;11.60;;;;;;;1.77;81.55;100810.52;1721844;80;21482;-59
2020/12/18 01:37:54;;;;;;;21.57;12.20;;;;;;;1.77;81.54;100813.17;1725312;80;21222;-60
2020/12/18 01:40:23;;;;;;;22.93;12.60;;;;;;;1.76;81.53;100812.72;1728235;80;21937;-59
2020/12/18 01:42:51;;;;;;;22.03;11.47;;;;;;;1.75;81.51;100815.81;1726116;80;21131;-59
2020/12/18 01:45:18;;;;;;;23.37;12.43;;;;;;;1.74;81.52;100810.05;1725058;80;21618;-60
2020/12/18 01:48:01;;;;;;;24.07;11.17;;;;;;;1.76;81.49;100806.09;1841696;76;26827;-60
2020/12/18 01:50:30;;;;;;;19.50;10.30;;;;;;;1.73;81.44;100807.39;1765945;77;21243;-60
2020/12/18 01:52:58;;;;;;;16.90;9.93;;;;;;;1.73;81.42;100816.68;1769439;77;21636;-59
2020/12/18 01:55:41;;;;;;;18.73;10.77;;;;;;;1.75;81.48;100808.29;1871347;75;27421;-61
2020/12/18 01:58:08;;;;;;;18.20;10.20;;;;;;;1.72;81.50;100810.48;1816078;77;21178;-60
2020/12/18 02:00:37;;;;;;;15.37;9.10;;;;;;;1.70;81.49;100808.73;1800398;78;21280;-61
2020/12/18 02:03:05;;;;;;;18.63;10.03;;;;;;;1.69;81.51;100809.60;1801931;78;21076;-61
2020/12/18 02:05:37;;;;;;;17.80;9.93;;;;;;;1.69;81.50;100809.60;1798762;77;21573;-61
2020/12/18 02:08:06;;;;;;;16.73;9.13;;;;;;;1.64;81.48;100802.93;1764464;78;21635;-61
2020/12/18 02:10:55;;;;;;;13.83;10.23;;;;;;;1.69;81.46;100805.63;1811524;76;27851;-60
2020/12/18 02:13:23;;;;;;;11.53;6.77;;;;;;;1.70;81.47;100806.07;1804541;77;20971;-59
2020/12/18 02:15:52;;;;;;;14.93;8.83;;;;;;;1.80;81.39;100811.84;1794022;77;22222;-60
2020/12/18 02:18:27;;;;;;;12.20;7.70;;;;;;;1.81;81.35;100805.21;1794991;77;21226;-60
2020/12/18 02:20:55;;;;;;;13.83;7.50;;;;;;;1.81;81.37;100805.21;1791543;77;21407;-60
2020/12/18 02:23:22;;;;;;;12.87;6.73;;;;;;;1.81;81.34;100808.31;1799547;77;21159;-60
2020/12/18 02:26:08;;;;;;;10.50;6.80;;;;;;;1.79;81.28;100806.08;1794116;77;21095;-60
2020/12/18 02:28:41;;;;;;;12.83;6.90;;;;;;;1.77;81.23;100802.12;1798886;77;21477;-60
2020/12/18 02:31:09;;;;;;;11.83;6.83;;;;;;;1.76;81.22;100803.44;1795164;77;22133;-60
2020/12/18 02:33:43;;;;;;;10.23;5.90;;;;;;;1.77;81.21;100803.45;1798435;77;21069;-59
2020/12/18 02:36:13;;;;;;;8.75;4.67;;;;;;;1.77;81.16;100806.09;1742775;80;21207;-60
2020/12/18 02:38:42;;;;;;;8.20;5.13;;;;;;;1.76;81.13;100798.12;1758694;79;21441;-60
2020/12/18 02:41:10;;;;;;;8.47;5.17;;;;;;;1.77;81.13;100798.14;1739818;79;22590;-61
2020/12/18 02:43:56;;;;;;;9.30;5.30;;;;;;;1.82;81.13;100791.50;1870751;75;28148;-61
2020/12/18 02:46:23;;;;;;;6.87;5.33;;;;;;;1.77;81.05;100799.91;1841388;76;21178;-59
2020/12/18 02:48:52;;;;;;;8.00;5.43;;;;;;;1.76;81.02;100796.36;1798196;78;21610;-59
2020/12/18 02:51:32;;;;;;;10.40;5.33;;;;;;;1.77;80.97;100792.83;1827961;75;27392;-59
2020/12/18 02:54:01;;;;;;;8.43;6.23;;;;;;;1.72;80.93;100795.00;1766951;77;21655;-60
2020/12/18 02:56:33;;;;;;;6.67;4.53;;;;;;;1.68;80.94;100795.44;1787468;77;22190;-58
2020/12/18 02:59:02;;;;;;;9.30;4.83;;;;;;;1.69;80.88;100795.89;1788734;77;21355;-60
2020/12/18 03:01:30;;;;;;;8.27;4.43;;;;;;;1.68;80.87;100797.20;1793349;77;21455;-59
2020/12/18 03:03:58;;;;;;;8.07;4.30;;;;;;;1.68;80.90;100799.86;1796558;77;21443;-58
2020/12/18 03:06:38;;;;;;;7.13;4.47;;;;;;;1.72;80.90;100797.65;1857592;75;26611;-61
2020/12/18 03:09:05;;;;;;;8.27;4.87;;;;;;;1.65;80.92;100795.42;1816628;77;21371;-58
2020/12/18 03:11:33;;;;;;;11.40;5.20;;;;;;;1.66;80.93;100795.87;1785302;77;21929;-57
2020/12/18 03:14:01;;;;;;;11.40;6.53;;;;;;;1.65;80.94;100795.42;1818349;77;21056;-60
2020/12/18 03:16:30;;;;;;;10.93;6.17;;;;;;;1.63;80.94;100795.84;1810705;77;21626;-60
2020/12/18 03:19:16;;;;;;;10.27;6.47;;;;;;;1.65;80.95;100794.09;1864903;75;26553;-61
2020/12/18 03:21:44;;;;;;;11.13;5.60;;;;;;;1.61;80.97;100801.61;1778677;78;21163;-57
2020/12/18 03:24:27;;;;;;;9.37;5.10;;;;;;;1.66;80.93;100794.54;1867792;75;26655;-58
2020/12/18 03:27:13;;;;;;;10.10;4.37;;;;;;;1.62;80.95;100795.39;1840547;76;21200;-59
2020/12/18 03:29:42;;;;;;;5.37;3.90;;;;;;;1.63;80.94;100801.59;1781277;78;22734;-60
2020/12/18 03:32:10;;;;;;;8.47;4.40;;;;;;;1.62;80.96;100794.50;1800547;78;21478;-57
2020/12/18 03:34:39;;;;;;;8.37;4.63;;;;;;;1.62;80.97;100799.81;1779208;78;22088;-58
2020/12/18 03:37:16;;;;;;;9.98;7.97;;;;;;;1.66;80.98;100794.98;1841509;74;28457;-57
2020/12/18 03:39:45;;;;;;;9.43;5.90;;;;;;;1.66;80.92;100799.84;1842612;76;21375;-56
2020/12/18 03:42:22;;;;;;;8.87;4.90;;;;;;;1.73;80.82;100806.06;1836610;76;22594;-57
2020/12/18 03:44:50;;;;;;;9.00;5.20;;;;;;;1.71;80.75;100796.77;1841349;76;21079;-57
2020/12/18 03:47:19;;;;;;;8.10;5.23;;;;;;;1.70;80.73;100794.13;1836224;76;21163;-58
2020/12/18 03:49:48;;;;;;;7.87;4.67;;;;;;;1.72;80.69;100797.21;1834711;76;21379;-60
2020/12/18 03:52:16;;;;;;;9.83;5.87;;;;;;;1.70;80.61;100790.14;1807070;76;21009;-59
2020/12/18 03:54:46;;;;;;;9.97;6.13;;;;;;;1.70;80.63;100796.31;1839779;76;23513;-60
2020/12/18 03:57:23;;;;;;;11.95;9.45;;;;;;;1.74;80.63;100792.80;1853394;75;28735;-61
2020/12/18 03:59:58;;;;;;;11.67;7.87;;;;;;;1.74;80.59;100794.56;1808129;77;21205;-57
2020/12/18 04:02:35;;;;;;;16.97;11.40;;;;;;;1.84;80.49;100784.44;1842358;74;27829;-60
2020/12/18 04:05:02;;;;;;;11.73;7.17;;;;;;;1.85;80.42;100788.87;1828498;76;21457;-56
2020/12/18 04:07:30;;;;;;;11.20;6.10;;;;;;;1.93;80.25;100784.47;1818749;76;22583;-57
2020/12/18 04:09:58;;;;;;;9.80;6.03;;;;;;;1.94;80.16;100784.03;1814026;77;20985;-58
2020/12/18 04:12:27;;;;;;;7.03;5.43;;;;;;;1.91;80.19;100787.55;1807742;77;21346;-57
2020/12/18 04:14:57;;;;;;;9.70;5.70;;;;;;;1.89;80.17;100787.98;1808024;77;21020;-56
2020/12/18 04:17:26;;;;;;;9.40;5.43;;;;;;;1.87;80.10;100789.77;1808044;77;21206;-58
2020/12/18 04:19:55;;;;;;;9.17;5.50;;;;;;;1.84;80.11;100787.98;1803157;77;21308;-58
2020/12/18 04:22:22;;;;;;;8.20;4.93;;;;;;;1.80;80.07;100786.62;1810220;77;21635;-56
2020/12/18 04:25:04;;;;;;;6.90;4.93;;;;;;;1.76;80.09;100780.87;1808388;77;21179;-62
2020/12/18 04:27:34;;;;;;;9.10;4.97;;;;;;;1.72;80.09;100788.36;1806229;77;21200;-61
2020/12/18 04:30:02;;;;;;;7.30;4.00;;;;;;;1.69;80.10;100779.97;1807260;77;21253;-61
2020/12/18 04:32:30;;;;;;;7.37;4.30;;;;;;;1.68;80.11;100782.17;1808079;77;21185;-57
2020/12/18 04:34:59;;;;;;;6.90;4.13;;;;;;;1.67;80.12;100785.70;1807489;77;21238;-57
2020/12/18 04:37:39;;;;;;;12.10;5.57;;;;;;;1.71;80.17;100782.16;1870030;75;26915;-61
2020/12/18 04:40:08;;;;;;;10.30;6.00;;;;;;;1.66;80.14;100788.34;1840507;76;21015;-61
2020/12/18 04:42:37;;;;;;;10.57;6.57;;;;;;;1.66;80.14;100789.67;1834943;76;21580;-57
2020/12/18 04:45:05;;;;;;;10.53;7.00;;;;;;;1.64;80.19;100788.33;1786421;76;21098;-61
2020/12/18 04:47:40;;;;;;;11.20;6.00;;;;;;;1.64;80.21;100788.77;1752810;78;20984;-62
2020/12/18 04:50:10;;;;;;;;;;;;;;;1.62;80.18;100791.41;1806328;78;21872;-60
2020/12/18 04:52:40;;;;;;;9.60;4.80;;;;;;;1.60;80.22;100798.94;1801232;78;20299;-60
2020/12/18 04:55:07;;;;;;;11.10;6.47;;;;;;;1.57;80.22;100794.94;1803773;78;21354;-62
2020/12/18 04:57:51;;;;;;;8.60;5.00;;;;;;;1.56;80.29;100794.48;1754228;79;21190;-62
2020/12/18 05:00:21;;;;;;;10.07;5.30;;;;;;;1.56;80.28;100795.38;1771446;79;21180;-57
2020/12/18 05:03:14;;;;;;;10.20;4.20;;;;;;;1.62;80.30;100794.06;1868526;75;26584;-58
2020/12/18 05:05:43;;;;;;;8.13;4.90;;;;;;;1.59;80.34;100799.38;1841756;76;21139;-60
2020/12/18 05:08:12;;;;;;;8.90;4.63;;;;;;;1.60;80.38;100801.59;1822332;77;21199;-63
2020/12/18 05:10:41;;;;;;;8.67;4.87;;;;;;;1.61;80.37;100805.59;1811808;78;21050;-58
2020/12/18 05:13:19;;;;;;;10.72;8.33;;;;;;;1.65;80.37;100807.36;1851155;75;28367;-58
2020/12/18 05:15:49;;;;;;;8.80;5.37;;;;;;;1.64;80.38;100806.91;1779991;78;21166;-60
2020/12/18 05:18:31;;;;;;;7.67;5.30;;;;;;;1.72;80.26;100802.95;1820702;75;26647;-58
2020/12/18 05:21:00;;;;;;;6.10;4.10;;;;;;;1.68;80.23;100801.19;1791214;77;21077;-61
2020/12/18 05:23:43;;;;;;;7.70;3.83;;;;;;;1.68;80.22;100810.48;1789164;77;21430;-63
2020/12/18 05:26:28;;;;;;;9.80;5.20;;;;;;;1.71;80.24;100804.72;1821399;76;26714;-60
2020/12/18 05:29:10;;;;;;;8.43;4.70;;;;;;;1.66;80.25;100808.25;1793591;77;21413;-58
2020/12/18 05:31:58;;;;;;;8.53;5.40;;;;;;;1.63;80.25;100810.88;1789101;77;21386;-57
2020/12/18 05:34:41;;;;;;;10.07;5.60;;;;;;;1.66;80.29;100808.25;1867864;75;26645;-59
2020/12/18 05:37:13;;;;;;;8.73;5.63;;;;;;;1.58;80.24;100809.55;1786618;76;21175;-60
2020/12/18 05:39:57;;;;;;;8.80;5.27;;;;;;;1.56;80.29;100809.08;1842026;76;21140;-61
2020/12/18 05:42:44;;;;;;;10.43;4.77;;;;;;;1.55;80.29;100804.64;1805594;78;22458;-58
2020/12/18 05:45:20;;;;;;;10.00;5.03;;;;;;;1.55;80.34;100811.28;1776950;79;21155;-60
2020/12/18 05:48:03;;;;;;;7.87;5.00;;;;;;;1.58;80.39;100815.29;1868327;75;26990;-61
2020/12/18 05:50:37;;;;;;;11.20;6.30;;;;;;;1.54;80.39;100819.68;1778591;78;21186;-58
2020/12/18 05:53:07;;;;;;;7.83;5.20;;;;;;;1.53;80.45;100818.79;1777449;78;21642;-57
2020/12/18 05:55:44;;;;;;;9.20;5.83;;;;;;;1.57;80.44;100818.81;1824404;76;27314;-57
2020/12/18 05:58:16;;;;;;;9.93;5.43;;;;;;;1.53;80.40;100825.00;1782325;77;21191;-59
2020/12/18 06:00:45;;;;;;;12.90;6.67;;;;;;;1.51;80.40;100823.23;1771140;77;21225;-61
2020/12/18 06:03:32;;;;;;;11.13;7.03;;;;;;;1.51;80.39;100830.30;1788732;77;21434;-59
2020/12/18 06:06:00;;;;;;;14.00;7.03;;;;;;;1.52;80.39;100834.73;1798177;77;21434;-57
2020/12/18 06:08:29;;;;;;;11.47;6.97;;;;;;;1.52;80.41;100830.75;1795447;77;21613;-58
2020/12/18 06:10:59;;;;;;;12.70;7.83;;;;;;;1.53;80.40;100829.41;1802866;77;21371;-60
2020/12/18 06:13:39;;;;;;;14.60;8.47;;;;;;;1.53;80.40;100835.62;1793172;77;21321;-57
2020/12/18 06:16:31;;;;;;;13.37;8.20;;;;;;;1.57;80.43;100825.45;1842435;76;26603;-57
2020/12/18 06:19:06;;;;;;;14.93;9.30;;;;;;;1.53;80.45;100836.95;1795220;77;21514;-57
2020/12/18 06:21:36;;;;;;;19.10;9.73;;;;;;;1.50;80.45;100829.84;1795227;77;23216;-60
2020/12/18 06:24:04;;;;;;;19.60;11.47;;;;;;;1.48;80.50;100828.50;1760363;77;21476;-59
2020/12/18 06:26:56;;;;;;;17.43;12.73;;;;;;;1.52;80.50;100828.09;1808631;76;28333;-59
2020/12/18 06:29:37;;;;;;;17.23;9.63;;;;;;;1.55;80.49;100835.16;1800885;77;20951;-59
2020/12/18 06:32:27;;;;;;;15.40;9.20;;;;;;;1.62;80.42;100839.18;1789931;77;21533;-60
2020/12/18 06:35:33;;;;;;;15.83;9.80;;;;;;;1.64;80.40;100840.52;1793917;77;21222;-59
2020/12/18 06:38:23;;;;;;;17.33;8.87;;;;;;;1.66;80.39;100839.66;1868637;75;27079;-59
2020/12/18 06:41:25;;;;;;;21.33;10.23;;;;;;;1.61;80.44;100841.42;1842168;75;21179;-61
2020/12/18 06:44:05;;;;;;;19.00;11.40;;;;;;;1.62;80.45;100839.62;1866096;75;26775;-59
2020/12/18 06:46:34;;;;;;;18.10;10.13;;;;;;;1.57;80.46;100842.70;1841904;76;21384;-58
2020/12/18 06:49:10;;;;;;;17.27;9.77;;;;;;;1.55;80.43;100844.02;1842123;76;21205;-60
2020/12/18 06:51:56;;;;;;;18.67;9.97;;;;;;;1.60;80.38;100841.41;1810212;76;26687;-57
2020/12/18 06:54:32;;;;;;;21.85;15.13;;;;;;;1.60;80.37;100844.95;1848841;74;27702;-61
2020/12/18 06:57:20;;;;;;;17.07;12.10;;;;;;;1.60;80.34;100841.41;1831057;76;21529;-59
2020/12/18 06:59:50;;;;;;;21.80;13.13;;;;;;;1.67;80.23;100843.20;1830090;76;21170;-60
2020/12/18 07:02:36;;;;;;;23.53;13.87;;;;;;;1.66;80.13;100845.41;1827387;76;21507;-57
2020/12/18 07:05:03;;;;;;;23.43;13.07;;;;;;;1.65;80.13;100843.63;1832200;76;21138;-56
2020/12/18 07:07:40;;;;;;;20.07;12.50;;;;;;;1.63;80.13;100843.61;1821884;76;21685;-58
2020/12/18 07:10:08;;;;;;;23.07;12.13;;;;;;;1.65;80.10;100839.64;1807912;77;21039;-57
2020/12/18 07:12:36;;;;;;;20.63;10.10;;;;;;;1.66;80.14;100844.08;1803554;77;22262;-61
2020/12/18 07:15:06;;;;;;;19.53;11.17;;;;;;;1.66;80.12;100838.77;1804455;77;21182;-59
2020/12/18 07:17:33;;;;;;;16.67;8.47;;;;;;;1.65;80.06;100842.30;1805018;77;21237;-57
2020/12/18 07:20:01;;;;;;;17.90;10.73;;;;;;;1.66;80.04;100848.06;1804387;77;21174;-61
2020/12/18 07:22:28;;;;;;;19.30;10.93;;;;;;;1.65;80.02;100841.86;1804897;77;21163;-58
2020/12/18 07:24:57;;;;;;;19.57;10.37;;;;;;;1.64;79.94;100841.41;1760153;79;21366;-57
2020/12/18 07:27:25;;;;;;;19.30;9.93;;;;;;;1.64;79.92;100844.50;1764436;79;21175;-57
2020/12/18 07:29:52;;;;;;;18.03;8.27;;;;;;;1.61;79.90;100849.38;1744346;80;21154;-59
2020/12/18 07:32:19;;;;;;;12.67;6.77;;;;;;;1.59;79.93;100846.26;1746572;80;21131;-59
2020/12/18 07:34:50;;;;;;;13.07;7.13;;;;;;;1.59;79.67;100847.15;1712568;80;21206;-60
2020/12/18 07:37:17;;;;;;;11.80;6.53;;;;;;;1.58;79.69;100844.48;1737260;80;21221;-59
2020/12/18 07:39:50;;;;;;;9.60;5.57;;;;;;;1.58;79.69;100849.79;1771816;79;21221;-58
2020/12/18 07:42:17;;;;;;;10.10;6.30;;;;;;;1.60;79.70;100845.38;1713717;80;21229;-58
2020/12/18 07:44:44;;;;;;;10.90;6.00;;;;;;;1.60;79.68;100841.41;1741742;80;21197;-58
2020/12/18 07:47:11;;;;;;;10.87;5.97;;;;;;;1.64;79.69;100851.14;1708880;80;21206;-62
2020/12/18 07:49:40;;;;;;;11.17;6.83;;;;;;;1.67;79.59;100848.08;1740371;80;21609;-58
2020/12/18 07:52:08;;;;;;;12.93;7.33;;;;;;;1.71;79.52;100849.84;1741658;80;21203;-59
2020/12/18 07:54:35;;;;;;;9.47;5.17;;;;;;;1.78;79.56;100850.78;1769021;79;21622;-59
2020/12/18 07:57:08;;;;;;;14.80;7.87;;;;;;;1.87;79.37;100845.05;1741980;80;21285;-59
2020/12/18 07:59:35;;;;;;;18.57;8.27;;;;;;;1.95;79.20;100850.86;1777913;79;20964;-61
2020/12/18 08:02:02;;;;;;;12.30;7.87;;;;;;;1.98;79.10;100853.07;1752721;80;21371;-62
2020/12/18 08:04:29;;;;;;;11.33;7.53;;;;;;;1.99;79.03;100856.17;1753184;80;21539;-58
2020/12/18 08:06:56;;;;;;;14.60;8.40;;;;;;;1.97;78.98;100855.71;1751109;80;21221;-61
2020/12/18 08:09:24;;;;;;;13.37;6.90;;;;;;;1.92;78.97;100857.48;1755365;80;21194;-56
2020/12/18 08:11:52;;;;;;;12.23;5.87;;;;;;;1.88;78.97;100855.23;1752353;80;21174;-58
2020/12/18 08:14:19;;;;;;;15.03;6.03;;;;;;;1.82;78.98;100853.45;1753167;80;22547;-57
2020/12/18 08:16:47;;;;;;;11.80;6.00;;;;;;;1.81;78.99;100854.77;1752932;80;21217;-63
2020/12/18 08:19:14;;;;;;;10.27;5.90;;;;;;;1.80;79.02;100856.53;1752251;80;21576;-61
2020/12/18 08:21:46;;;;;;;7.70;5.13;;;;;;;1.79;79.05;100854.75;1751983;80;21119;-61
2020/12/18 08:24:32;;;;;;;16.10;6.10;;;;;;;1.77;79.06;100859.63;1754522;80;21233;-59
2020/12/18 08:27:21;;;;;;;13.43;7.03;;;;;;;1.74;79.11;100855.62;1756301;80;21632;-58
2020/12/18 08:29:47;;;;;;;9.87;5.67;;;;;;;1.73;79.16;100859.15;1753212;80;21256;-60
2020/12/18 08:32:28;;;;;;;11.50;5.73;;;;;;;1.71;79.10;100855.16;1753898;80;21197;-61
2020/12/18 08:35:00;;;;;;;13.47;7.10;;;;;;;1.70;79.09;100852.05;1754371;80;21023;-61
2020/12/18 08:39:58;;;;;;;11.13;7.17;;;;;;;1.79;79.06;100847.22;1870358;74;26657;-58
2020/12/18 08:42:26;;;;;;;13.20;7.07;;;;;;;1.76;79.08;100841.92;1777638;79;21008;-59
2020/12/18 08:44:53;;;;;;;15.17;8.57;;;;;;;1.76;79.10;100844.58;1781066;78;21672;-59
2020/12/18 08:47:23;;;;;;;12.73;7.60;;;;;;;1.77;79.12;100839.28;1767460;79;21064;-59
2020/12/18 08:49:52;;;;;;;17.53;8.57;;;;;;;1.78;79.08;100837.52;1802066;78;20985;-57
2020/12/18 08:52:29;;;;;;;15.67;7.90;;;;;;;1.78;79.08;100838.84;1797511;78;21052;-59
2020/12/18 08:55:04;;;;;;;14.97;7.30;;;;;;;1.79;79.05;100833.95;1788424;79;21473;-59
2020/12/18 08:57:31;;;;;;;13.27;6.87;;;;;;;1.81;79.03;100829.11;1789628;78;22145;-61
2020/12/18 09:00:13;;;;;;;12.17;7.77;;;;;;;1.85;79.01;100830.91;1784112;79;21178;-62
2020/12/18 09:02:50;;;;;;;13.07;8.90;;;;;;;1.87;78.86;100815.84;1784427;79;21187;-58
2020/12/18 09:05:34;;;;;;;13.77;8.67;;;;;;;1.91;78.82;100818.08;1789445;79;20956;-59
2020/12/18 09:10:59;;;;;;;16.03;13.03;;;;;;;2.03;78.33;100814.16;1873850;75;26643;-59
2020/12/18 09:13:29;;;;;;;21.90;17.27;;;;;;;2.02;78.36;100811.05;1844784;75;21057;-60
2020/12/18 09:16:08;;;;;;;18.03;15.83;;;;;;;2.04;78.36;100811.92;1846024;76;21361;-61
2020/12/18 09:18:44;;;;;;;14.77;10.17;;;;;;;2.07;78.33;100812.38;1847045;75;21040;-61
2020/12/18 09:21:17;;;;;;;11.00;7.50;;;;;;;2.10;78.31;100803.99;1846386;76;20990;-59
2020/12/18 09:23:46;;;;;;;10.07;5.77;;;;;;;2.14;78.30;100800.44;1847329;75;21463;-58
2020/12/18 09:26:26;;;;;;;9.43;5.47;;;;;;;2.19;78.36;100804.45;1843068;76;21154;-60
2020/12/18 09:28:53;;;;;;;11.23;6.70;;;;;;;2.22;78.31;100799.13;1846749;75;21375;-62
2020/12/18 09:31:20;;;;;;;10.43;5.33;;;;;;;2.24;78.27;100800.91;1845340;75;21189;-60
2020/12/18 09:33:47;;;;;;;12.17;6.50;;;;;;;2.25;78.23;100805.34;1842802;76;21158;-60
2020/12/18 09:36:19;;;;;;;14.17;8.23;;;;;;;2.26;78.14;100796.94;1846824;76;21379;-60
2020/12/18 09:38:49;;;;;;;11.57;8.43;;;;;;;2.25;78.09;100799.15;1850512;76;21191;-61
2020/12/18 09:41:21;;;;;;;10.80;7.30;;;;;;;2.24;78.06;100794.71;1844682;75;21431;-61
2020/12/18 09:43:49;;;;;;;13.07;6.10;;;;;;;2.22;78.03;100801.34;1845948;76;22584;-61
2020/12/18 09:46:18;;;;;;;11.87;5.87;;;;;;;2.22;78.05;100797.36;1776817;78;21504;-60
2020/12/18 09:50:11;;;;;;;9.00;6.37;;;;;;;2.25;78.10;100792.06;1792958;77;26570;-60
2020/12/18 09:52:40;;;;;;;8.93;6.60;;;;;;;2.23;78.15;100798.25;1763778;78;21487;-61
2020/12/18 09:55:07;;;;;;;5.73;4.83;;;;;;;2.24;78.13;100792.95;1765176;78;21386;-61
2020/12/18 09:57:35;;;;;;;8.77;4.43;;;;;;;2.25;78.01;100791.17;1762269;78;21951;-58
2020/12/18 10:00:05;;;;;;;6.77;4.73;;;;;;;2.24;77.92;100792.05;1760186;78;21186;-57
2020/12/18 10:02:34;;;;;;;5.63;4.30;;;;;;;2.23;77.84;100791.61;1768286;78;21099;-59
2020/12/18 10:05:01;;;;;;;6.00;4.37;;;;;;;2.22;77.92;100792.48;1763746;78;21227;-59
2020/12/18 10:07:29;;;;;;;4.93;4.10;;;;;;;2.22;77.83;100792.48;1759658;78;21834;-63
2020/12/18 10:09:56;;;;;;;6.23;3.47;;;;;;;2.20;77.74;100784.55;1703621;82;21215;-62
2020/12/18 10:12:23;;;;;;;5.27;3.50;;;;;;;2.20;77.79;100796.94;1691069;83;21112;-60
2020/12/18 10:14:50;;;;;;;3.57;3.23;;;;;;;2.19;77.81;100794.72;1693787;83;21212;-59
2020/12/18 10:17:18;;;;;;;6.23;3.73;;;;;;;2.18;77.78;100791.62;1721948;81;21598;-58
2020/12/18 10:19:45;;;;;;;5.17;3.40;;;;;;;2.15;77.68;100784.95;1719538;81;21270;-57
2020/12/18 10:22:12;;;;;;;9.60;4.20;;;;;;;2.13;77.67;100781.41;1722621;81;21638;-56
2020/12/18 10:24:40;;;;;;;4.97;3.73;;;;;;;2.10;77.58;100781.42;1718201;81;21190;-59
2020/12/18 10:27:07;;;;;;;5.07;3.33;;;;;;;2.06;77.68;100781.39;1718771;81;21712;-57
2020/12/18 10:29:34;;;;;;;4.70;3.73;;;;;;;2.07;77.73;100791.13;1719488;81;21208;-60
2020/12/18 10:32:01;;;;;;;5.03;3.97;;;;;;;2.08;77.85;100780.52;1721392;81;21657;-58
2020/12/18 10:34:28;;;;;;;4.17;3.77;;;;;;;2.11;77.82;100783.20;1705025;81;21235;-58
2020/12/18 10:36:56;;;;;;;5.60;3.47;;;;;;;2.11;77.89;100780.98;1691663;83;21598;-61
2020/12/18 10:39:23;;;;;;;8.30;3.90;;;;;;;2.11;77.94;100779.21;1702546;82;21204;-59
2020/12/18 10:41:54;;;;;;;5.60;3.50;;;;;;;2.11;78.00;100783.20;1693476;83;21187;-58
2020/12/18 10:44:21;;;;;;;4.10;3.23;;;;;;;2.11;77.96;100776.55;1693974;83;22781;-59
2020/12/18 10:46:48;;;;;;;4.23;2.90;;;;;;;2.11;77.93;100782.30;1692366;83;21259;-63
2020/12/18 10:49:17;;;;;;;5.00;4.43;;;;;;;2.11;77.95;100775.66;1698260;82;21461;-59
2020/12/18 10:51:45;;;;;;;5.20;3.93;;;;;;;2.11;77.99;100773.90;1737800;80;21212;-61
2020/12/18 10:54:13;;;;;;;5.97;3.73;;;;;;;2.12;78.06;100772.13;1733131;80;21228;-63
2020/12/18 10:56:42;;;;;;;5.50;4.33;;;;;;;2.13;78.05;100775.20;1734069;80;21695;-57
2020/12/18 10:59:10;;;;;;;6.00;4.60;;;;;;;2.14;78.14;100774.32;1737958;80;21219;-58
2020/12/18 11:01:38;;;;;;;6.43;5.33;;;;;;;2.15;78.11;100764.14;1738026;80;21136;-57
2020/12/18 11:04:05;;;;;;;6.60;5.53;;;;;;;2.16;78.03;100760.61;1684662;83;21474;-57
2020/12/18 11:06:38;;;;;;;5.93;4.87;;;;;;;2.15;77.99;100767.69;1737332;80;21148;-58
2020/12/18 11:09:05;;;;;;;6.43;4.87;;;;;;;2.14;77.92;100759.27;1738400;80;21219;-59
2020/12/18 11:11:32;;;;;;;7.93;4.73;;;;;;;2.10;77.97;100754.86;1735499;80;21176;-61
2020/12/18 11:14:00;;;;;;;6.80;5.23;;;;;;;2.10;78.06;100754.86;1733242;80;22336;-58
2020/12/18 11:16:28;;;;;;;6.80;4.67;;;;;;;2.11;77.94;100755.30;1738979;80;21120;-57
2020/12/18 11:19:01;;;;;;;6.57;3.80;;;;;;;2.12;77.98;100743.80;1737206;80;21511;-56
2020/12/18 11:21:24;;;;;;;7.43;4.80;;;;;;;2.13;77.99;100745.98;1734883;80;23746;-59
2020/12/18 11:23:52;;;;;;;9.97;6.83;;;;;;;2.12;78.01;100749.55;1736297;80;21211;-58
2020/12/18 11:26:19;;;;;;;9.83;6.17;;;;;;;2.10;78.06;100752.20;1736642;80;21578;-59
2020/12/18 11:28:46;;;;;;;10.10;6.67;;;;;;;2.11;78.11;100758.41;1735593;80;21207;-60
2020/12/18 11:31:14;;;;;;;9.47;6.80;;;;;;;2.10;78.10;100760.61;1737515;80;21192;-56
2020/12/18 11:33:41;;;;;;;11.30;7.10;;;;;;;2.08;78.15;100768.56;1735357;80;21377;-58
2020/12/18 11:36:08;;;;;;;11.37;7.93;;;;;;;2.06;78.11;100753.06;1735376;80;21662;-56
2020/12/18 11:38:35;;;;;;;13.20;8.10;;;;;;;2.09;78.09;100747.77;1733259;80;21156;-57
2020/12/18 11:41:03;;;;;;;10.13;7.20;;;;;;;2.11;78.17;100744.68;1733026;80;21665;-58
2020/12/18 11:43:30;;;;;;;11.30;8.27;;;;;;;2.13;78.24;100745.98;1739826;80;21136;-58
2020/12/18 11:45:59;;;;;;;13.97;9.07;;;;;;;2.15;78.27;100744.23;1738872;80;21345;-63
2020/12/18 11:48:29;;;;;;;12.53;7.63;;;;;;;2.17;78.27;100736.72;1739713;80;21180;-57
2020/12/18 11:50:59;;;;;;;11.13;7.53;;;;;;;2.18;78.27;100738.48;1745722;80;21613;-56
2020/12/18 11:53:26;;;;;;;13.43;8.00;;;;;;;2.15;78.31;100742.45;1684566;83;21700;-59